sensor_id;sensor_type;location;lat;lon;timestamp;pressure;altitude;pressure_sealevel;temperature;humidity
75418;BME280;63997;52.112;5.420;2023-12-20T00:01:05;101675.72;;;5.82;100.00
75418;BME280;63997;52.112;5.420;2023-12-20T00:03:31;101671.00;;;5.79;100.00
75418;BME280;63997;52.112;5.420;2023-12-20T00:06:08;101662.53;;;5.77;100.00
75418;BME280;63997;52.112;5.420;2023-12-20T00:08:35;101659.38;;;5.80;100.00
75418;BME280;63997;52.112;5.420;2023-12-20T00:11:01;101655.69;;;5.76;100.00
75418;BME280;63997;52.112;5.420;2023-12-20T00:13:28;101650.94;;;5.73;100.00
75418;BME280;63997;52.112;5.420;2023-12-20T00:15:55;101652.81;;;5.67;100.00
75418;BME280;63997;52.112;5.420;2023-12-20T00:18:21;101650.69;;;5.64;100.00
75418;BME280;63997;52.112;5.420;2023-12-20T00:20:48;101647.25;;;5.58;100.00
75418;BME280;63997;52.112;5.420;2023-12-20T00:23:14;101656.22;;;5.57;100.00
75418;BME280;63997;52.112;5.420;2023-12-20T00:25:41;101658.88;;;5.57;100.00
75418;BME280;63997;52.112;5.420;2023-12-20T00:28:07;101655.16;;;5.53;100.00
75418;BME280;63997;52.112;5.420;2023-12-20T00:30:34;101644.63;;;5.48;100.00
75418;BME280;63997;52.112;5.420;2023-12-20T00:33:00;101648.03;;;5.44;100.00
75418;BME280;63997;52.112;5.420;2023-12-20T00:35:27;101659.94;;;5.41;100.00
75418;BME280;63997;52.112;5.420;2023-12-20T00:37:54;101653.06;;;5.40;100.00
75418;BME280;63997;52.112;5.420;2023-12-20T00:40:20;101659.13;;;5.41;100.00
75418;BME280;63997;52.112;5.420;2023-12-20T00:42:47;101662.03;;;5.39;100.00
75418;BME280;63997;52.112;5.420;2023-12-20T00:45:14;101652.53;;;5.38;100.00
75418;BME280;63997;52.112;5.420;2023-12-20T00:47:41;101652.78;;;5.31;100.00
75418;BME280;63997;52.112;5.420;2023-12-20T00:50:08;101655.97;;;5.28;100.00
75418;BME280;63997;52.112;5.420;2023-12-20T00:52:35;101655.69;;;5.25;100.00
75418;BME280;63997;52.112;5.420;2023-12-20T00:55:02;101647.00;;;5.19;100.00
75418;BME280;63997;52.112;5.420;2023-12-20T00:57:30;101648.84;;;5.19;100.00
75418;BME280;63997;52.112;5.420;2023-12-20T00:59:57;101656.22;;;5.17;100.00
75418;BME280;63997;52.112;5.420;2023-12-20T01:02:24;101662.81;;;5.14;100.00
75418;BME280;63997;52.112;5.420;2023-12-20T01:04:50;101657.81;;;5.13;100.00
75418;BME280;63997;52.112;5.420;2023-12-20T01:07:17;101650.41;;;5.10;100.00
75418;BME280;63997;52.112;5.420;2023-12-20T01:09:44;101650.94;;;5.12;100.00
75418;BME280;63997;52.112;5.420;2023-12-20T01:12:10;101647.25;;;5.13;100.00
75418;BME280;63997;52.112;5.420;2023-12-20T01:14:37;101640.41;;;5.12;100.00
75418;BME280;63997;52.112;5.420;2023-12-20T01:17:03;101638.81;;;5.06;100.00
75418;BME280;63997;52.112;5.420;2023-12-20T01:19:30;101642.50;;;4.99;100.00
75418;BME280;63997;52.112;5.420;2023-12-20T01:21:57;101633.78;;;4.94;100.00
75418;BME280;63997;52.112;5.420;2023-12-20T01:24:23;101636.41;;;4.89;100.00
75418;BME280;63997;52.112;5.420;2023-12-20T01:26:50;101644.03;;;4.85;100.00
75418;BME280;63997;52.112;5.420;2023-12-20T01:29:17;101649.31;;;4.85;100.00
75418;BME280;63997;52.112;5.420;2023-12-20T01:31:43;101653.53;;;4.86;100.00
75418;BME280;63997;52.112;5.420;2023-12-20T01:34:10;101653.03;;;4.89;100.00
75418;BME280;63997;52.112;5.420;2023-12-20T01:36:36;101664.63;;;4.88;100.00
75418;BME280;63997;52.112;5.420;2023-12-20T01:39:03;101654.59;;;4.90;100.00
75418;BME280;63997;52.112;5.420;2023-12-20T01:41:38;101660.38;;;4.92;100.00
75418;BME280;63997;52.112;5.420;2023-12-20T01:44:04;101657.25;;;4.95;100.00
75418;BME280;63997;52.112;5.420;2023-12-20T01:46:31;101652.50;;;4.97;100.00
75418;BME280;63997;52.112;5.420;2023-12-20T01:48:57;101643.53;;;4.98;100.00
75418;BME280;63997;52.112;5.420;2023-12-20T01:51:24;101641.69;;;4.99;100.00
75418;BME280;63997;52.112;5.420;2023-12-20T01:53:55;101647.22;;;4.97;100.00
75418;BME280;63997;52.112;5.420;2023-12-20T01:56:24;101647.22;;;5.02;100.00
75418;BME280;63997;52.112;5.420;2023-12-20T01:58:50;101646.97;;;5.09;100.00
75418;BME280;63997;52.112;5.420;2023-12-20T02:01:18;101648.81;;;5.14;100.00
75418;BME280;63997;52.112;5.420;2023-12-20T02:03:45;101641.44;;;5.16;100.00
75418;BME280;63997;52.112;5.420;2023-12-20T02:06:12;101649.34;;;5.16;100.00
75418;BME280;63997;52.112;5.420;2023-12-20T02:08:38;101650.16;;;5.16;100.00
75418;BME280;63997;52.112;5.420;2023-12-20T02:11:05;101645.41;;;5.18;100.00
75418;BME280;63997;52.112;5.420;2023-12-20T02:13:32;101642.00;;;5.18;100.00
75418;BME280;63997;52.112;5.420;2023-12-20T02:15:59;101640.94;;;5.19;100.00
75418;BME280;63997;52.112;5.420;2023-12-20T02:18:25;101642.00;;;5.18;100.00
75418;BME280;63997;52.112;5.420;2023-12-20T02:20:52;101644.09;;;5.21;100.00
75418;BME280;63997;52.112;5.420;2023-12-20T02:23:19;101636.44;;;5.24;100.00
75418;BME280;63997;52.112;5.420;2023-12-20T02:25:46;101624.31;;;5.28;100.00
75418;BME280;63997;52.112;5.420;2023-12-20T02:28:13;101638.03;;;5.30;100.00
75418;BME280;63997;52.112;5.420;2023-12-20T02:30:39;101632.47;;;5.32;100.00
75418;BME280;63997;52.112;5.420;2023-12-20T02:33:08;101636.97;;;5.37;100.00
75418;BME280;63997;52.112;5.420;2023-12-20T02:35:36;101630.63;;;5.38;100.00
75418;BME280;63997;52.112;5.420;2023-12-20T02:38:03;101626.44;;;5.42;100.00
75418;BME280;63997;52.112;5.420;2023-12-20T02:40:29;101628.00;;;5.43;100.00
75418;BME280;63997;52.112;5.420;2023-12-20T02:42:56;101631.19;;;5.45;100.00
75418;BME280;63997;52.112;5.420;2023-12-20T02:45:23;101627.50;;;5.46;100.00
75418;BME280;63997;52.112;5.420;2023-12-20T02:47:49;101618.00;;;5.45;100.00
75418;BME280;63997;52.112;5.420;2023-12-20T02:50:16;101618.50;;;5.47;100.00
75418;BME280;63997;52.112;5.420;2023-12-20T02:52:44;101614.53;;;5.49;100.00
75418;BME280;63997;52.112;5.420;2023-12-20T02:55:11;101604.00;;;5.49;100.00
75418;BME280;63997;52.112;5.420;2023-12-20T02:57:38;101609.81;;;5.51;100.00
75418;BME280;63997;52.112;5.420;2023-12-20T03:00:09;101607.16;;;5.51;100.00
75418;BME280;63997;52.112;5.420;2023-12-20T03:02:35;101605.03;;;5.48;100.00
75418;BME280;63997;52.112;5.420;2023-12-20T03:05:02;101606.09;;;5.47;100.00
75418;BME280;63997;52.112;5.420;2023-12-20T03:07:29;101600.31;;;5.50;100.00
75418;BME280;63997;52.112;5.420;2023-12-20T03:09:55;101604.53;;;5.51;100.00
75418;BME280;63997;52.112;5.420;2023-12-20T03:12:41;101601.09;;;5.51;100.00
75418;BME280;63997;52.112;5.420;2023-12-20T03:15:08;101599.50;;;5.50;100.00
75418;BME280;63997;52.112;5.420;2023-12-20T03:17:35;101598.97;;;5.53;100.00
75418;BME280;63997;52.112;5.420;2023-12-20T03:20:01;101605.31;;;5.57;100.00
75418;BME280;63997;52.112;5.420;2023-12-20T03:22:28;101595.28;;;5.59;100.00
75418;BME280;63997;52.112;5.420;2023-12-20T03:24:54;101597.41;;;5.62;100.00
75418;BME280;63997;52.112;5.420;2023-12-20T03:27:21;101586.56;;;5.64;100.00
75418;BME280;63997;52.112;5.420;2023-12-20T03:29:47;101574.94;;;5.65;100.00
75418;BME280;63997;52.112;5.420;2023-12-20T03:32:14;101582.34;;;5.63;100.00
75418;BME280;63997;52.112;5.420;2023-12-20T03:34:40;101576.53;;;5.61;100.00
75418;BME280;63997;52.112;5.420;2023-12-20T03:37:07;101588.41;;;5.58;100.00
75418;BME280;63997;52.112;5.420;2023-12-20T03:39:34;101588.69;;;5.56;100.00
75418;BME280;63997;52.112;5.420;2023-12-20T03:42:00;101591.06;;;5.58;100.00
75418;BME280;63997;52.112;5.420;2023-12-20T03:44:27;101596.06;;;5.60;100.00
75418;BME280;63997;52.112;5.420;2023-12-20T03:46:53;101587.34;;;5.64;100.00
75418;BME280;63997;52.112;5.420;2023-12-20T03:49:20;101590.25;;;5.68;100.00
75418;BME280;63997;52.112;5.420;2023-12-20T03:51:46;101590.50;;;5.71;100.00
75418;BME280;63997;52.112;5.420;2023-12-20T03:54:13;101592.34;;;5.71;100.00
75418;BME280;63997;52.112;5.420;2023-12-20T03:56:39;101588.13;;;5.70;100.00
75418;BME280;63997;52.112;5.420;2023-12-20T03:59:05;101588.91;;;5.70;100.00
75418;BME280;63997;52.112;5.420;2023-12-20T04:01:32;101583.91;;;5.69;100.00
75418;BME280;63997;52.112;5.420;2023-12-20T04:03:59;101580.72;;;5.72;100.00
75418;BME280;63997;52.112;5.420;2023-12-20T04:06:25;101583.13;;;5.73;100.00
75418;BME280;63997;52.112;5.420;2023-12-20T04:08:52;101584.44;;;5.71;100.00
75418;BME280;63997;52.112;5.420;2023-12-20T04:11:18;101581.00;;;5.75;100.00
75418;BME280;63997;52.112;5.420;2023-12-20T04:13:45;101583.34;;;5.77;100.00
75418;BME280;63997;52.112;5.420;2023-12-20T04:16:11;101585.19;;;5.81;100.00
75418;BME280;63997;52.112;5.420;2023-12-20T04:18:38;101573.84;;;5.81;100.00
75418;BME280;63997;52.112;5.420;2023-12-20T04:21:05;101566.22;;;5.79;100.00
75418;BME280;63997;52.112;5.420;2023-12-20T04:23:33;101568.84;;;5.79;100.00
75418;BME280;63997;52.112;5.420;2023-12-20T04:25:59;101572.25;;;5.85;100.00
75418;BME280;63997;52.112;5.420;2023-12-20T04:28:26;101570.41;;;5.86;100.00
75418;BME280;63997;52.112;5.420;2023-12-20T04:30:52;101569.38;;;5.92;100.00
75418;BME280;63997;52.112;5.420;2023-12-20T04:33:19;101570.66;;;5.94;100.00
75418;BME280;63997;52.112;5.420;2023-12-20T04:35:45;101578.56;;;5.99;100.00
75418;BME280;63997;52.112;5.420;2023-12-20T04:38:12;101583.56;;;6.06;100.00
75418;BME280;63997;52.112;5.420;2023-12-20T04:40:39;101573.53;;;6.08;100.00
75418;BME280;63997;52.112;5.420;2023-12-20T04:43:07;101573.25;;;6.15;100.00
75418;BME280;63997;52.112;5.420;2023-12-20T04:45:35;101563.47;;;6.15;100.00
75418;BME280;63997;52.112;5.420;2023-12-20T04:48:02;101560.53;;;6.17;100.00
75418;BME280;63997;52.112;5.420;2023-12-20T04:50:28;101574.28;;;6.19;100.00
75418;BME280;63997;52.112;5.420;2023-12-20T04:52:55;101568.44;;;6.22;100.00
75418;BME280;63997;52.112;5.420;2023-12-20T04:55:22;101559.47;;;6.23;100.00
75418;BME280;63997;52.112;5.420;2023-12-20T04:57:48;101561.06;;;6.24;100.00
75418;BME280;63997;52.112;5.420;2023-12-20T05:00:15;101556.78;;;6.28;100.00
75418;BME280;63997;52.112;5.420;2023-12-20T05:02:42;101561.25;;;6.32;100.00
75418;BME280;63997;52.112;5.420;2023-12-20T05:05:08;101543.31;;;6.34;100.00
75418;BME280;63997;52.112;5.420;2023-12-20T05:07:35;101550.97;;;6.36;100.00
75418;BME280;63997;52.112;5.420;2023-12-20T05:10:03;101557.81;;;6.37;100.00
75418;BME280;63997;52.112;5.420;2023-12-20T05:12:30;101562.81;;;6.39;100.00
75418;BME280;63997;52.112;5.420;2023-12-20T05:14:58;101557.53;;;6.39;100.00
75418;BME280;63997;52.112;5.420;2023-12-20T05:17:25;101549.88;;;6.42;100.00
75418;BME280;63997;52.112;5.420;2023-12-20T05:19:52;101559.38;;;6.43;100.00
75418;BME280;63997;52.112;5.420;2023-12-20T05:22:19;101560.16;;;6.44;100.00
75418;BME280;63997;52.112;5.420;2023-12-20T05:24:46;101565.16;;;6.45;100.00
75418;BME280;63997;52.112;5.420;2023-12-20T05:27:13;101557.75;;;6.47;100.00
75418;BME280;63997;52.112;5.420;2023-12-20T05:29:39;101559.34;;;6.48;100.00
75418;BME280;63997;52.112;5.420;2023-12-20T05:32:06;101570.69;;;6.49;100.00
75418;BME280;63997;52.112;5.420;2023-12-20T05:34:33;101567.78;;;6.50;100.00
75418;BME280;63997;52.112;5.420;2023-12-20T05:36:59;101568.56;;;6.51;100.00
75418;BME280;63997;52.112;5.420;2023-12-20T05:39:28;101567.53;;;6.52;100.00
75418;BME280;63997;52.112;5.420;2023-12-20T05:41:54;101563.03;;;6.52;100.00
75418;BME280;63997;52.112;5.420;2023-12-20T05:44:21;101563.81;;;6.53;100.00
75418;BME280;63997;52.112;5.420;2023-12-20T05:46:47;101560.88;;;6.54;100.00
75418;BME280;63997;52.112;5.420;2023-12-20T05:49:14;101552.97;;;6.54;100.00
75418;BME280;63997;52.112;5.420;2023-12-20T05:51:40;101556.09;;;6.56;100.00
75418;BME280;63997;52.112;5.420;2023-12-20T05:54:08;101557.16;;;6.55;100.00
75418;BME280;63997;52.112;5.420;2023-12-20T05:56:35;101563.78;;;6.58;100.00
75418;BME280;63997;52.112;5.420;2023-12-20T05:59:01;101562.72;;;6.59;100.00
75418;BME280;63997;52.112;5.420;2023-12-20T06:01:28;101559.78;;;6.60;100.00
75418;BME280;63997;52.112;5.420;2023-12-20T06:03:54;101557.13;;;6.60;100.00
75418;BME280;63997;52.112;5.420;2023-12-20T06:06:21;101563.22;;;6.61;100.00
75418;BME280;63997;52.112;5.420;2023-12-20T06:08:47;101559.50;;;6.62;100.00
75418;BME280;63997;52.112;5.420;2023-12-20T06:11:14;101561.34;;;6.61;100.00
75418;BME280;63997;52.112;5.420;2023-12-20T06:13:41;101561.91;;;6.63;100.00
75418;BME280;63997;52.112;5.420;2023-12-20T06:16:07;101553.41;;;6.67;100.00
75418;BME280;63997;52.112;5.420;2023-12-20T06:18:34;101555.78;;;6.68;100.00
75418;BME280;63997;52.112;5.420;2023-12-20T06:21:01;101557.63;;;6.68;100.00
75418;BME280;63997;52.112;5.420;2023-12-20T06:23:28;101554.97;;;6.68;100.00
75418;BME280;63997;52.112;5.420;2023-12-20T06:25:55;101550.22;;;6.70;100.00
75418;BME280;63997;52.112;5.420;2023-12-20T06:28:21;101549.66;;;6.73;100.00
75418;BME280;63997;52.112;5.420;2023-12-20T06:30:48;101553.91;;;6.74;100.00
75418;BME280;63997;52.112;5.420;2023-12-20T06:33:16;101547.78;;;6.73;100.00
75418;BME280;63997;52.112;5.420;2023-12-20T06:35:42;101552.31;;;6.73;100.00
75418;BME280;63997;52.112;5.420;2023-12-20T06:38:09;101549.91;;;6.76;100.00
75418;BME280;63997;52.112;5.420;2023-12-20T06:40:35;101548.56;;;6.79;100.00
75418;BME280;63997;52.112;5.420;2023-12-20T06:43:02;101548.84;;;6.77;100.00
75418;BME280;63997;52.112;5.420;2023-12-20T06:45:41;101541.19;;;6.76;100.00
75418;BME280;63997;52.112;5.420;2023-12-20T06:48:08;101545.13;;;6.78;100.00
75418;BME280;63997;52.112;5.420;2023-12-20T06:50:37;101539.84;;;6.78;100.00
75418;BME280;63997;52.112;5.420;2023-12-20T06:53:06;101533.75;;;6.78;100.00
75418;BME280;63997;52.112;5.420;2023-12-20T06:55:35;101533.75;;;6.78;100.00
75418;BME280;63997;52.112;5.420;2023-12-20T06:58:04;101533.75;;;6.78;100.00
75418;BME280;63997;52.112;5.420;2023-12-20T07:00:31;101537.72;;;6.80;100.00
75418;BME280;63997;52.112;5.420;2023-12-20T07:02:58;101541.94;;;6.81;100.00
75418;BME280;63997;52.112;5.420;2023-12-20T07:05:25;101533.22;;;6.81;100.00
75418;BME280;63997;52.112;5.420;2023-12-20T07:07:51;101540.88;;;6.82;100.00
75418;BME280;63997;52.112;5.420;2023-12-20T07:10:20;101525.00;;;6.82;100.00
75418;BME280;63997;52.112;5.420;2023-12-20T07:12:46;101530.53;;;6.86;100.00
75418;BME280;63997;52.112;5.420;2023-12-20T07:15:15;101533.19;;;6.86;100.00
75418;BME280;63997;52.112;5.420;2023-12-20T07:17:42;101533.97;;;6.86;100.00
75418;BME280;63997;52.112;5.420;2023-12-20T07:20:09;101525.25;;;6.86;100.00
75418;BME280;63997;52.112;5.420;2023-12-20T07:22:37;101533.69;;;6.88;100.00
75418;BME280;63997;52.112;5.420;2023-12-20T07:25:04;101524.69;;;6.89;100.00
75418;BME280;63997;52.112;5.420;2023-12-20T07:27:30;101522.28;;;6.93;100.00
75418;BME280;63997;52.112;5.420;2023-12-20T07:29:58;101526.00;;;6.92;100.00
75418;BME280;63997;52.112;5.420;2023-12-20T07:32:24;101522.56;;;6.91;100.00
75418;BME280;63997;52.112;5.420;2023-12-20T07:34:51;101523.84;;;6.94;100.00
75418;BME280;63997;52.112;5.420;2023-12-20T07:37:18;101515.94;;;6.94;100.00
75418;BME280;63997;52.112;5.420;2023-12-20T07:39:45;101516.72;;;6.94;100.00
75418;BME280;63997;52.112;5.420;2023-12-20T07:42:11;101508.50;;;6.96;100.00
75418;BME280;63997;52.112;5.420;2023-12-20T07:44:38;101508.25;;;6.97;100.00
75418;BME280;63997;52.112;5.420;2023-12-20T07:47:05;101519.88;;;6.96;100.00
75418;BME280;63997;52.112;5.420;2023-12-20T07:49:32;101523.03;;;6.98;100.00
75418;BME280;63997;52.112;5.420;2023-12-20T07:52:00;101523.03;;;6.98;100.00
75418;BME280;63997;52.112;5.420;2023-12-20T07:54:26;101527.75;;;7.01;100.00
75418;BME280;63997;52.112;5.420;2023-12-20T07:56:53;101546.00;;;7.03;100.00
75418;BME280;63997;52.112;5.420;2023-12-20T07:59:19;101537.50;;;7.06;100.00
75418;BME280;63997;52.112;5.420;2023-12-20T08:01:58;101539.38;;;7.05;100.00
75418;BME280;63997;52.112;5.420;2023-12-20T08:04:25;101542.00;;;7.05;100.00
75418;BME280;63997;52.112;5.420;2023-12-20T08:06:51;101546.22;;;7.06;100.00
75418;BME280;63997;52.112;5.420;2023-12-20T08:09:18;101554.94;;;7.07;100.00
75418;BME280;63997;52.112;5.420;2023-12-20T08:11:48;101556.53;;;7.08;100.00
75418;BME280;63997;52.112;5.420;2023-12-20T08:14:15;101555.19;;;7.10;100.00
75418;BME280;63997;52.112;5.420;2023-12-20T08:16:42;101550.97;;;7.09;100.00
75418;BME280;63997;52.112;5.420;2023-12-20T08:19:09;101554.41;;;7.10;100.00
75418;BME280;63997;52.112;5.420;2023-12-20T08:21:36;101548.81;;;7.11;100.00
75418;BME280;63997;52.112;5.420;2023-12-20T08:24:04;101553.34;;;7.11;100.00
75418;BME280;63997;52.112;5.420;2023-12-20T08:26:32;101545.94;;;7.13;100.00
75418;BME280;63997;52.112;5.420;2023-12-20T08:28:59;101537.72;;;7.14;100.00
75418;BME280;63997;52.112;5.420;2023-12-20T08:31:28;101540.34;;;7.14;100.00
75418;BME280;63997;52.112;5.420;2023-12-20T08:33:55;101536.91;;;7.14;100.00
75418;BME280;63997;52.112;5.420;2023-12-20T08:36:22;101540.34;;;7.14;100.00
75418;BME280;63997;52.112;5.420;2023-12-20T08:38:50;101537.13;;;7.18;100.00
75418;BME280;63997;52.112;5.420;2023-12-20T08:41:18;101534.22;;;7.19;100.00
75418;BME280;63997;52.112;5.420;2023-12-20T08:43:44;101540.31;;;7.20;100.00
75418;BME280;63997;52.112;5.420;2023-12-20T08:46:11;101538.75;;;7.19;100.00
75418;BME280;63997;52.112;5.420;2023-12-20T08:48:38;101541.88;;;7.21;100.00
75418;BME280;63997;52.112;5.420;2023-12-20T08:51:05;101539.25;;;7.21;100.00
75418;BME280;63997;52.112;5.420;2023-12-20T08:53:36;101541.88;;;7.21;100.00
75418;BME280;63997;52.112;5.420;2023-12-20T08:56:02;101528.66;;;7.21;100.00
75418;BME280;63997;52.112;5.420;2023-12-20T08:58:29;101525.78;;;7.17;100.00
75418;BME280;63997;52.112;5.420;2023-12-20T09:00:56;101532.91;;;7.16;100.00
75418;BME280;63997;52.112;5.420;2023-12-20T09:03:24;101540.84;;;7.16;100.00
75418;BME280;63997;52.112;5.420;2023-12-20T09:05:51;101540.06;;;7.16;100.00
75418;BME280;63997;52.112;5.420;2023-12-20T09:08:17;101527.91;;;7.15;100.00
75418;BME280;63997;52.112;5.420;2023-12-20T09:10:45;101525.28;;;7.15;100.00
75418;BME280;63997;52.112;5.420;2023-12-20T09:13:12;101523.69;;;7.14;100.00
75418;BME280;63997;52.112;5.420;2023-12-20T09:15:39;101521.84;;;7.14;100.00
75418;BME280;63997;52.112;5.420;2023-12-20T09:18:05;101530.56;;;7.15;100.00
75418;BME280;63997;52.112;5.420;2023-12-20T09:20:34;101532.13;;;7.16;100.00
75418;BME280;63997;52.112;5.420;2023-12-20T09:23:01;101529.47;;;7.16;100.00
75418;BME280;63997;52.112;5.420;2023-12-20T09:25:27;101526.84;;;7.16;100.00
75418;BME280;63997;52.112;5.420;2023-12-20T09:27:55;101526.56;;;7.18;100.00
75418;BME280;63997;52.112;5.420;2023-12-20T09:30:22;101528.66;;;7.21;100.00
75418;BME280;63997;52.112;5.420;2023-12-20T09:32:54;101524.41;;;7.25;100.00
75418;BME280;63997;52.112;5.420;2023-12-20T09:35:21;101534.94;;;7.30;100.00
75418;BME280;63997;52.112;5.420;2023-12-20T09:37:48;101528.50;;;7.36;100.00
75418;BME280;63997;52.112;5.420;2023-12-20T09:40:18;101522.16;;;7.37;100.00
75418;BME280;63997;52.112;5.420;2023-12-20T09:42:53;101531.13;;;7.41;100.00
75418;BME280;63997;52.112;5.420;2023-12-20T09:45:22;101528.38;;;7.46;100.00
75418;BME280;63997;52.112;5.420;2023-12-20T09:47:50;101527.84;;;7.49;100.00
75418;BME280;63997;52.112;5.420;2023-12-20T09:50:21;101536.28;;;7.51;100.00
75418;BME280;63997;52.112;5.420;2023-12-20T09:52:50;101533.09;;;7.54;100.00
75418;BME280;63997;52.112;5.420;2023-12-20T09:55:18;101536.75;;;7.58;100.00
75418;BME280;63997;52.112;5.420;2023-12-20T09:57:46;101530.59;;;7.63;100.00
75418;BME280;63997;52.112;5.420;2023-12-20T10:00:14;101533.19;;;7.68;100.00
75418;BME280;63997;52.112;5.420;2023-12-20T10:02:58;101536.34;;;7.70;100.00
75418;BME280;63997;52.112;5.420;2023-12-20T10:05:30;101533.13;;;7.73;100.00
75418;BME280;63997;52.112;5.420;2023-12-20T10:07:58;101540.47;;;7.81;100.00
75418;BME280;63997;52.112;5.420;2023-12-20T10:10:26;101544.41;;;7.84;100.00
75418;BME280;63997;52.112;5.420;2023-12-20T10:13:10;101540.41;;;7.86;100.00
75418;BME280;63997;52.112;5.420;2023-12-20T10:15:37;101535.91;;;7.87;100.00
75418;BME280;63997;52.112;5.420;2023-12-20T10:18:05;101552.28;;;7.89;100.00
75418;BME280;63997;52.112;5.420;2023-12-20T10:20:33;101545.91;;;7.90;100.00
75418;BME280;63997;52.112;5.420;2023-12-20T10:23:00;101550.94;;;7.91;100.00
75418;BME280;63997;52.112;5.420;2023-12-20T10:25:27;101544.84;;;7.91;100.00
75418;BME280;63997;52.112;5.420;2023-12-20T10:30:38;101541.13;;;7.92;100.00
75418;BME280;63997;52.112;5.420;2023-12-20T10:33:08;101536.84;;;7.96;100.00
75418;BME280;63997;52.112;5.420;2023-12-20T10:35:37;101525.97;;;7.98;100.00
75418;BME280;63997;52.112;5.420;2023-12-20T10:38:06;101535.19;;;8.00;100.00
75418;BME280;63997;52.112;5.420;2023-12-20T10:40:37;101530.63;;;8.06;100.00
75418;BME280;63997;52.112;5.420;2023-12-20T10:43:04;101525.56;;;8.09;100.00
75418;BME280;63997;52.112;5.420;2023-12-20T10:45:32;101527.13;;;8.10;100.00
75418;BME280;63997;52.112;5.420;2023-12-20T10:47:59;101521.34;;;8.08;100.00
75418;BME280;63997;52.112;5.420;2023-12-20T10:50:28;101522.63;;;8.11;100.00
75418;BME280;63997;52.112;5.420;2023-12-20T10:52:56;101524.72;;;8.14;100.00
75418;BME280;63997;52.112;5.420;2023-12-20T10:55:24;101524.41;;;8.15;100.00
75418;BME280;63997;52.112;5.420;2023-12-20T10:57:51;101513.22;;;8.18;100.00
75418;BME280;63997;52.112;5.420;2023-12-20T11:00:19;101505.22;;;8.23;100.00
75418;BME280;63997;52.112;5.420;2023-12-20T11:02:49;101515.25;;;8.27;100.00
75418;BME280;63997;52.112;5.420;2023-12-20T11:05:49;101504.66;;;8.27;99.88
75418;BME280;63997;52.112;5.420;2023-12-20T11:08:40;101504.06;;;8.30;99.94
75418;BME280;63997;52.112;5.420;2023-12-20T11:14:06;101507.13;;;8.42;99.36
75418;BME280;63997;52.112;5.420;2023-12-20T11:16:38;101496.63;;;8.51;99.46
75418;BME280;63997;52.112;5.420;2023-12-20T11:19:17;101495.00;;;8.55;99.00
75418;BME280;63997;52.112;5.420;2023-12-20T11:21:45;101499.72;;;8.58;98.49
75418;BME280;63997;52.112;5.420;2023-12-20T11:24:12;101512.09;;;8.62;98.51
75418;BME280;63997;52.112;5.420;2023-12-20T11:26:46;101486.97;;;8.60;98.52
75418;BME280;63997;52.112;5.420;2023-12-20T11:29:30;101484.38;;;8.55;98.61
75418;BME280;63997;52.112;5.420;2023-12-20T11:32:00;101489.69;;;8.55;98.77
75418;BME280;63997;52.112;5.420;2023-12-20T11:34:27;101482.44;;;8.60;98.92
75418;BME280;63997;52.112;5.420;2023-12-20T11:36:59;101478.56;;;8.71;98.20
75418;BME280;63997;52.112;5.420;2023-12-20T11:39:27;101475.81;;;8.77;97.82
75418;BME280;63997;52.112;5.420;2023-12-20T11:41:56;101474.16;;;8.81;97.76
75418;BME280;63997;52.112;5.420;2023-12-20T11:44:25;101477.63;;;8.81;98.17
75418;BME280;63997;52.112;5.420;2023-12-20T11:46:54;101472.09;;;8.78;97.33
75418;BME280;63997;52.112;5.420;2023-12-20T11:49:23;101474.44;;;8.79;97.23
75418;BME280;63997;52.112;5.420;2023-12-20T11:51:50;101456.66;;;8.80;97.13
75418;BME280;63997;52.112;5.420;2023-12-20T11:54:18;101463.25;;;8.82;97.29
75418;BME280;63997;52.112;5.420;2023-12-20T11:56:44;101453.94;;;8.85;97.06
75418;BME280;63997;52.112;5.420;2023-12-20T11:59:11;101444.09;;;8.85;97.03
75418;BME280;63997;52.112;5.420;2023-12-20T12:01:50;101454.44;;;8.87;97.11
75418;BME280;63997;52.112;5.420;2023-12-20T12:04:18;101454.63;;;8.90;96.72
75418;BME280;63997;52.112;5.420;2023-12-20T12:06:45;101453.84;;;8.90;96.68
75418;BME280;63997;52.112;5.420;2023-12-20T12:09:12;101451.78;;;8.87;96.87
75418;BME280;63997;52.112;5.420;2023-12-20T12:11:40;101456.56;;;8.85;96.55
75418;BME280;63997;52.112;5.420;2023-12-20T12:14:07;101465.63;;;8.84;96.76
75418;BME280;63997;52.112;5.420;2023-12-20T12:16:34;101463.25;;;8.82;97.09
75418;BME280;63997;52.112;5.420;2023-12-20T12:19:01;101469.06;;;8.84;97.02
75418;BME280;63997;52.112;5.420;2023-12-20T12:21:28;101466.69;;;8.83;96.91
75418;BME280;63997;52.112;5.420;2023-12-20T12:24:09;101468.56;;;8.82;97.18
75418;BME280;63997;52.112;5.420;2023-12-20T12:26:36;101450.78;;;8.83;96.66
75418;BME280;63997;52.112;5.420;2023-12-20T12:29:02;101452.84;;;8.86;96.43
75418;BME280;63997;52.112;5.420;2023-12-20T12:31:30;101452.56;;;8.87;96.22
75418;BME280;63997;52.112;5.420;2023-12-20T12:33:57;101448.06;;;8.88;96.14
75418;BME280;63997;52.112;5.420;2023-12-20T12:36:23;101436.34;;;8.89;96.17
75418;BME280;63997;52.112;5.420;2023-12-20T12:38:50;101432.63;;;8.90;96.20
75418;BME280;63997;52.112;5.420;2023-12-20T12:41:17;101432.63;;;8.90;96.22
75418;BME280;63997;52.112;5.420;2023-12-20T12:43:44;101433.41;;;8.90;96.52
75418;BME280;63997;52.112;5.420;2023-12-20T12:46:10;101423.56;;;8.91;96.51
75418;BME280;63997;52.112;5.420;2023-12-20T12:48:37;101418.09;;;8.87;96.54
75418;BME280;63997;52.112;5.420;2023-12-20T12:51:06;101412.00;;;8.87;96.62
75418;BME280;63997;52.112;5.420;2023-12-20T12:53:38;101415.44;;;8.87;96.83
75418;BME280;63997;52.112;5.420;2023-12-20T12:56:06;101411.19;;;8.86;96.17
75418;BME280;63997;52.112;5.420;2023-12-20T12:58:32;101414.66;;;8.87;96.08
75418;BME280;63997;52.112;5.420;2023-12-20T13:01:00;101406.69;;;8.87;96.20